Time;durP1;ratioP1;P1;durP2;ratioP2;P2;SDS_P1;SDS_P2;PMS_P1;PMS_P2;Temp;Humidity;BMP_temperature;BMP_pressure;BME280_temperature;BME280_humidity;BME280_pressure;Samples;Min_cycle;Max_cycle;Signal;HPM_P1;HPM_P2
2022/12/07 00:01:29;;;;;;;4.35;2.67;;;-7.30;74.10;;;;;;5086337;28;20021;-77
2022/12/07 00:04:06;;;;;;;8.30;3.53;;;-7.30;74.10;;;;;;5073369;28;20055;-77
2022/12/07 00:06:39;;;;;;;7.32;4.05;;;-7.30;74.20;;;;;;5084346;28;20125;-77
2022/12/07 00:09:09;;;;;;;6.72;3.60;;;-7.40;74.20;;;;;;5074556;28;20066;-77
2022/12/07 00:11:35;;;;;;;7.88;3.75;;;-7.40;74.30;;;;;;5054320;28;20035;-77
2022/12/07 00:14:05;;;;;;;6.80;4.03;;;-7.40;75.10;;;;;;5084750;28;20028;-78
2022/12/07 00:16:33;;;;;;;9.02;4.93;;;-7.40;74.70;;;;;;5086817;28;20055;-78
2022/12/07 00:18:59;;;;;;;7.45;3.50;;;-7.40;74.70;;;;;;5084141;28;20016;-78
2022/12/07 00:21:28;;;;;;;7.57;3.60;;;-7.50;74.60;;;;;;5075793;28;20024;-76
2022/12/07 00:23:54;;;;;;;7.80;4.20;;;-7.50;74.60;;;;;;5074399;28;20068;-77
2022/12/07 00:26:28;;;;;;;9.50;4.70;;;-7.50;74.70;;;;;;5087568;28;20028;-78
2022/12/07 00:28:58;;;;;;;6.50;4.38;;;-7.50;74.80;;;;;;5074343;28;20033;-79
2022/12/07 00:31:26;;;;;;;10.15;2.83;;;-7.50;74.90;;;;;;5076691;28;20028;-79
2022/12/07 00:33:52;;;;;;;7.45;5.00;;;-7.50;75.00;;;;;;5064181;28;20020;-78
2022/12/07 00:36:20;;;;;;;5.00;3.15;;;-7.50;75.10;;;;;;5079016;28;20526;-76
2022/12/07 00:38:46;;;;;;;5.72;4.38;;;-7.50;75.10;;;;;;5072867;28;20079;-77
2022/12/07 00:41:15;;;;;;;7.95;4.00;;;-7.60;75.00;;;;;;5072737;28;20052;-77
2022/12/07 00:43:42;;;;;;;6.43;4.07;;;-7.60;75.00;;;;;;5075047;28;20025;-78
2022/12/07 00:46:08;;;;;;;5.53;2.65;;;-7.60;75.00;;;;;;5074110;28;20105;-78
2022/12/07 00:48:34;;;;;;;8.23;3.70;;;-7.60;75.00;;;;;;5077482;28;20024;-77
2022/12/07 00:51:01;;;;;;;5.28;4.05;;;-7.60;74.80;;;;;;5064535;28;20032;-77
2022/12/07 00:53:27;;;;;;;9.57;4.07;;;-7.60;74.80;;;;;;5091505;28;20012;-78
2022/12/07 00:55:55;;;;;;;5.65;2.50;;;-7.60;74.90;;;;;;5057536;28;20028;-78
2022/12/07 00:58:21;;;;;;;9.18;4.35;;;-7.60;74.90;;;;;;5079311;28;20028;-77
2022/12/07 01:00:47;;;;;;;6.90;4.72;;;-7.60;74.80;;;;;;5082595;28;20093;-78
2022/12/07 01:03:17;;;;;;;6.20;3.97;;;-7.60;74.80;;;;;;5072873;28;20047;-77
2022/12/07 01:05:51;;;;;;;7.15;3.80;;;-7.60;74.50;;;;;;5067431;28;20035;-77
2022/12/07 01:08:17;;;;;;;6.13;3.53;;;-7.60;74.30;;;;;;5081155;28;20231;-78
2022/12/07 01:10:43;;;;;;;6.88;4.00;;;-7.50;74.20;;;;;;5089339;28;20016;-78
2022/12/07 01:13:09;;;;;;;5.63;2.47;;;-7.60;74.10;;;;;;5080864;28;20087;-76
2022/12/07 01:15:38;;;;;;;5.13;3.45;;;-7.60;74.10;;;;;;5085425;28;20017;-76
2022/12/07 01:18:04;;;;;;;5.75;3.90;;;-7.60;74.10;;;;;;5081356;28;20021;-76
2022/12/07 01:20:30;;;;;;;5.63;3.50;;;-7.60;74.20;;;;;;5087003;28;20112;-76
2022/12/07 01:22:55;;;;;;;4.57;4.10;;;-7.60;74.70;;;;;;5083327;28;20032;-75
2022/12/07 01:25:21;;;;;;;6.80;3.65;;;-7.60;73.80;;;;;;5091010;28;20024;-77
2022/12/07 01:27:47;;;;;;;10.13;3.83;;;-7.60;73.60;;;;;;5088426;28;20028;-77
2022/12/07 01:30:13;;;;;;;8.73;3.95;;;-7.60;73.70;;;;;;5087388;28;20032;-76
2022/12/07 01:32:39;;;;;;;8.63;3.15;;;-7.60;73.80;;;;;;5069684;28;20475;-76
2022/12/07 01:35:05;;;;;;;8.63;4.65;;;-7.60;73.90;;;;;;5068862;28;20036;-78
2022/12/07 01:37:38;;;;;;;8.23;4.10;;;-7.70;73.90;;;;;;5071153;28;20370;-77
2022/12/07 01:40:06;;;;;;;3.22;2.70;;;-7.60;74.00;;;;;;5087665;28;20443;-75
2022/12/07 01:42:32;;;;;;;6.70;4.00;;;-7.60;74.10;;;;;;5092957;28;20497;-77
2022/12/07 01:45:36;;;;;;;5.47;3.70;;;-7.60;73.80;;;;;;5064477;28;20098;-75
2022/12/07 01:48:02;;;;;;;3.72;3.08;;;-7.70;74.50;;;;;;5077508;28;20025;-77
2022/12/07 01:50:31;;;;;;;11.65;5.28;;;-7.70;74.30;;;;;;5084200;28;20044;-78
2022/12/07 01:53:02;;;;;;;7.20;3.75;;;-7.70;73.70;;;;;;5088960;28;20476;-79
2022/12/07 01:55:29;;;;;;;5.13;3.22;;;-7.70;73.90;;;;;;5089682;28;20090;-78
2022/12/07 01:57:56;;;;;;;14.43;4.45;;;-7.70;74.00;;;;;;5093660;28;20028;-77
2022/12/07 02:00:22;;;;;;;8.40;4.03;;;-7.70;74.00;;;;;;5088799;28;20075;-76
2022/12/07 02:03:01;;;;;;;9.75;4.50;;;-7.70;74.10;;;;;;5084894;28;20052;-78
2022/12/07 02:05:27;;;;;;;8.73;3.78;;;-7.70;74.10;;;;;;5084759;28;20103;-77
2022/12/07 02:07:55;;;;;;;7.88;3.50;;;-7.70;74.20;;;;;;5079822;28;20020;-77
2022/12/07 02:10:24;;;;;;;4.97;2.63;;;-7.70;74.30;;;;;;5085266;28;20055;-78
2022/12/07 02:12:55;;;;;;;5.43;3.90;;;-7.80;74.40;;;;;;5081308;28;20028;-77
2022/12/07 02:15:25;;;;;;;10.35;4.50;;;-7.80;74.30;;;;;;5086691;28;20055;-78
2022/12/07 02:18:14;;;;;;;7.57;4.57;;;-7.80;74.20;;;;;;5087694;28;20032;-78
2022/12/07 02:20:58;;;;;;;7.05;4.10;;;-7.80;74.40;;;;;;5074639;28;20013;-77
2022/12/07 02:23:59;;;;;;;9.20;4.78;;;-7.80;74.50;;;;;;5094406;28;20021;-77
2022/12/07 02:26:55;;;;;;;10.98;4.13;;;-7.80;74.60;;;;;;5088803;28;20106;-79
2022/12/07 02:29:25;;;;;;;5.90;4.10;;;-7.80;74.70;;;;;;5071845;28;20524;-77
2022/12/07 02:31:58;;;;;;;7.10;3.30;;;-7.90;74.90;;;;;;5089232;28;20032;-78
2022/12/07 02:34:37;;;;;;;5.03;3.28;;;-7.90;75.10;;;;;;5090179;28;20355;-78
2022/12/07 02:37:13;;;;;;;5.13;3.55;;;-7.90;75.10;;;;;;5079926;28;20462;-75
2022/12/07 02:39:59;;;;;;;5.25;3.78;;;-7.90;75.10;;;;;;5063966;28;20442;-79
2022/12/07 02:42:33;;;;;;;6.90;3.17;;;-7.90;75.20;;;;;;5082013;28;20504;-77
2022/12/07 02:45:00;;;;;;;6.70;4.03;;;-7.90;75.00;;;;;;5061591;28;20032;-78
2022/12/07 02:47:28;;;;;;;3.65;2.40;;;-7.90;75.10;;;;;;5074934;28;20409;-77
2022/12/07 02:49:55;;;;;;;5.88;3.30;;;-8.00;75.30;;;;;;5093333;28;20051;-77
2022/12/07 02:52:21;;;;;;;15.07;4.72;;;-7.90;75.40;;;;;;5070393;28;20397;-78
2022/12/07 02:54:47;;;;;;;3.95;2.55;;;-7.90;75.40;;;;;;5054683;28;20021;-78
2022/12/07 02:57:27;;;;;;;10.05;3.08;;;-8.00;75.60;;;;;;5087746;28;20020;-78
2022/12/07 03:00:08;;;;;;;4.82;3.42;;;-8.00;75.90;;;;;;5085390;28;20035;-78
2022/12/07 03:02:53;;;;;;;10.18;2.55;;;-8.00;76.00;;;;;;5092534;28;20028;-79
2022/12/07 03:05:21;;;;;;;4.68;3.22;;;-8.10;76.40;;;;;;5093451;28;20032;-78
2022/12/07 03:08:11;;;;;;;4.25;3.13;;;-8.10;76.40;;;;;;5081408;28;20397;-78
2022/12/07 03:10:53;;;;;;;4.85;2.33;;;-8.10;76.70;;;;;;5080569;28;20038;-77
2022/12/07 03:13:33;;;;;;;7.78;4.25;;;-8.10;76.60;;;;;;5066659;28;20020;-78
2022/12/07 03:16:03;;;;;;;8.60;3.75;;;-8.10;76.70;;;;;;5077641;28;20016;-78
2022/12/07 03:18:32;;;;;;;6.22;3.42;;;-8.10;76.50;;;;;;5075858;28;20496;-78
2022/12/07 03:21:04;;;;;;;9.30;4.13;;;-8.10;76.40;;;;;;5061096;28;20080;-77
2022/12/07 03:23:34;;;;;;;8.43;4.20;;;-8.10;76.40;;;;;;5085559;28;20427;-77
2022/12/07 03:26:01;;;;;;;3.60;2.63;;;-8.10;76.60;;;;;;5080696;28;20369;-78
2022/12/07 03:28:34;;;;;;;8.95;3.22;;;-8.10;76.70;;;;;;5079442;28;20100;-77
2022/12/07 03:31:06;;;;;;;10.82;4.55;;;-8.10;76.80;;;;;;5081587;28;20039;-79
2022/12/07 03:33:40;;;;;;;6.03;4.32;;;-8.10;76.80;;;;;;5086425;28;20024;-78
2022/12/07 03:36:15;;;;;;;5.75;3.33;;;-8.20;76.90;;;;;;5084540;28;20032;-78
2022/12/07 03:38:48;;;;;;;7.38;2.83;;;-8.10;77.10;;;;;;5068810;28;20515;-78
2022/12/07 03:41:25;;;;;;;7.60;4.38;;;-8.10;77.00;;;;;;5073536;28;20388;-80
2022/12/07 03:43:53;;;;;;;8.18;5.18;;;-8.10;77.00;;;;;;5086895;28;20059;-78
2022/12/07 03:46:21;;;;;;;8.75;3.60;;;-8.10;77.10;;;;;;5074182;28;20351;-78
2022/12/07 03:48:59;;;;;;;5.45;3.88;;;-8.10;77.20;;;;;;5088591;28;20040;-77
2022/12/07 03:51:45;;;;;;;11.20;4.53;;;-8.10;77.30;;;;;;5086168;28;20145;-78
2022/12/07 03:54:24;;;;;;;7.88;3.15;;;-8.20;77.40;;;;;;5075578;28;20073;-77
2022/12/07 03:56:51;;;;;;;6.78;4.20;;;-8.20;77.50;;;;;;5077805;28;20101;-78
2022/12/07 03:59:18;;;;;;;5.32;2.95;;;-8.20;77.60;;;;;;5078968;28;20028;-77
2022/12/07 04:01:54;;;;;;;9.23;4.53;;;-8.20;77.60;;;;;;5093787;28;20363;-78
2022/12/07 04:04:20;;;;;;;4.53;3.20;;;-8.20;77.70;;;;;;5076651;28;20383;-77
2022/12/07 04:06:46;;;;;;;6.78;3.75;;;-8.20;77.80;;;;;;5077761;28;20128;-79
2022/12/07 04:09:14;;;;;;;11.00;5.63;;;-8.20;77.70;;;;;;5078741;28;20048;-76
2022/12/07 04:11:39;;;;;;;;;;;-8.20;77.80;;;;;;5078037;28;20013;-80
2022/12/07 04:14:20;;;;;;;6.78;2.47;;;-8.20;78.00;;;;;;5078044;28;19914;-79
2022/12/07 04:16:49;;;;;;;6.30;4.82;;;-8.20;78.00;;;;;;5084226;28;20482;-78
2022/12/07 04:19:16;;;;;;;8.85;4.30;;;-8.20;78.30;;;;;;5064167;28;20087;-79
2022/12/07 04:21:42;;;;;;;11.60;4.60;;;-8.20;78.50;;;;;;5079981;28;20047;-79
2022/12/07 04:24:08;;;;;;;7.97;4.15;;;-8.30;78.50;;;;;;5091509;28;20067;-79
2022/12/07 04:26:34;;;;;;;12.68;5.20;;;-8.30;78.70;;;;;;5085496;28;20060;-78
2022/12/07 04:28:59;;;;;;;8.32;4.45;;;-8.30;78.90;;;;;;5092446;28;20051;-79
2022/12/07 04:31:25;;;;;;;7.88;4.55;;;-8.30;79.40;;;;;;5081215;28;20056;-77
2022/12/07 04:33:51;;;;;;;8.70;4.22;;;-8.30;79.50;;;;;;5086895;28;20022;-78
2022/12/07 04:36:19;;;;;;;7.45;4.78;;;-8.30;79.90;;;;;;5079395;28;20086;-78
2022/12/07 04:38:45;;;;;;;6.00;2.50;;;-8.30;80.00;;;;;;5073168;28;20013;-78
2022/12/07 04:41:11;;;;;;;7.80;5.40;;;-8.30;80.00;;;;;;5083739;28;20026;-79
2022/12/07 04:43:37;;;;;;;14.40;4.20;;;-8.40;80.20;;;;;;5075996;28;20454;-77
2022/12/07 04:46:04;;;;;;;9.05;4.30;;;-8.40;80.30;;;;;;5073439;28;20025;-78
2022/12/07 04:48:29;;;;;;;8.63;4.35;;;-8.40;80.50;;;;;;5088138;28;20025;-79
2022/12/07 04:50:55;;;;;;;9.10;3.97;;;-8.40;80.80;;;;;;5079661;28;20047;-78
2022/12/07 04:53:21;;;;;;;10.55;4.97;;;-8.40;81.00;;;;;;5096030;28;20020;-79
2022/12/07 04:55:47;;;;;;;12.23;5.45;;;-8.40;81.10;;;;;;5086453;28;20511;-79
2022/12/07 04:58:13;;;;;;;13.70;5.88;;;-8.40;81.20;;;;;;5082497;28;20421;-77
2022/12/07 05:00:41;;;;;;;8.63;4.45;;;-8.40;81.40;;;;;;5088218;28;20048;-77
2022/12/07 05:03:07;;;;;;;;;;;-8.50;81.60;;;;;;5076280;28;20135;-78
2022/12/07 05:05:33;;;;;;;6.15;3.08;;;-8.50;81.70;;;;;;5080784;28;19956;-80
2022/12/07 05:07:59;;;;;;;9.77;4.65;;;-8.50;81.80;;;;;;5066369;28;20042;-79
2022/12/07 05:10:25;;;;;;;9.93;7.38;;;-8.50;82.10;;;;;;5065391;28;20093;-77
2022/12/07 05:12:50;;;;;;;10.20;4.20;;;-8.50;82.40;;;;;;5083723;28;20020;-79
2022/12/07 05:15:16;;;;;;;7.97;4.53;;;-8.50;82.50;;;;;;5084010;28;20017;-78
2022/12/07 05:17:42;;;;;;;8.65;5.03;;;-8.50;82.50;;;;;;5093823;28;20381;-79
2022/12/07 05:20:09;;;;;;;10.10;5.70;;;-8.50;82.70;;;;;;5089814;28;20528;-77
2022/12/07 05:22:35;;;;;;;10.17;5.13;;;-8.50;83.30;;;;;;5079925;28;20126;-78
2022/12/07 05:25:01;;;;;;;14.97;7.53;;;-8.50;83.50;;;;;;5081774;28;20356;-78
2022/12/07 05:27:27;;;;;;;9.93;4.93;;;-8.50;83.40;;;;;;5094043;28;20552;-77
2022/12/07 05:29:53;;;;;;;7.47;5.00;;;-8.60;83.40;;;;;;5091427;28;20025;-77
2022/12/07 05:32:19;;;;;;;15.55;5.60;;;-8.60;83.60;;;;;;5065819;28;20051;-77
2022/12/07 05:34:45;;;;;;;11.90;6.30;;;-8.60;83.70;;;;;;5096579;28;20081;-78
2022/12/07 05:37:10;;;;;;;10.50;5.80;;;-8.60;83.90;;;;;;5077264;28;20032;-78
2022/12/07 05:39:40;;;;;;;8.82;5.72;;;-8.60;84.10;;;;;;5077113;28;20024;-79
2022/12/07 05:42:12;;;;;;;10.25;6.10;;;-8.70;84.10;;;;;;5076909;28;20032;-79
2022/12/07 05:44:45;;;;;;;10.40;5.85;;;-8.70;84.20;;;;;;5095157;28;20020;-78
2022/12/07 05:47:12;;;;;;;11.30;5.85;;;-8.70;84.20;;;;;;5094978;28;20050;-79
2022/12/07 05:49:38;;;;;;;8.50;5.63;;;-8.70;84.40;;;;;;5095150;28;20020;-77
2022/12/07 05:52:04;;;;;;;8.00;5.85;;;-8.70;84.60;;;;;;5094635;28;20521;-78
2022/12/07 05:54:30;;;;;;;16.30;6.20;;;-8.70;84.70;;;;;;5095032;28;20070;-78
2022/12/07 05:56:56;;;;;;;11.77;6.03;;;-8.70;84.80;;;;;;5089964;28;20025;-77
2022/12/07 05:59:22;;;;;;;13.48;6.20;;;-8.70;84.90;;;;;;5095078;28;20465;-79
2022/12/07 06:01:54;;;;;;;9.43;3.93;;;-8.70;85.20;;;;;;5094850;28;20047;-77
2022/12/07 06:04:21;;;;;;;11.55;6.45;;;-8.70;85.30;;;;;;5094737;28;20036;-77
2022/12/07 06:06:47;;;;;;;10.50;6.32;;;-8.70;85.50;;;;;;5095234;28;20035;-77
2022/12/07 06:09:14;;;;;;;13.50;5.50;;;-8.70;85.70;;;;;;5095020;28;20012;-79
2022/12/07 06:14:24;;;;;;;13.25;6.40;;;-8.70;85.90;;;;;;5091903;28;20505;-79
2022/12/07 06:16:50;;;;;;;10.77;6.93;;;-8.70;86.00;;;;;;5086285;28;20036;-79
2022/12/07 06:19:17;;;;;;;9.52;6.65;;;-8.70;86.20;;;;;;5094387;28;20029;-77
2022/12/07 06:21:43;;;;;;;16.08;7.38;;;-8.70;86.50;;;;;;5076183;28;20562;-77
2022/12/07 06:24:12;;;;;;;12.00;7.43;;;-8.60;86.70;;;;;;5094593;28;20023;-82
2022/12/07 06:26:38;;;;;;;10.20;6.93;;;-8.60;86.70;;;;;;5076714;28;20060;-78
2022/12/07 06:29:04;;;;;;;15.77;6.53;;;-8.60;86.80;;;;;;5096064;28;20389;-80
2022/12/07 06:31:30;;;;;;;18.38;8.32;;;-8.60;86.70;;;;;;5092165;28;20016;-80
2022/12/07 06:34:03;;;;;;;13.50;7.57;;;-8.70;86.80;;;;;;5069575;28;20107;-80
2022/12/07 06:36:34;;;;;;;14.32;7.25;;;-8.70;87.10;;;;;;5094552;28;20093;-82
2022/12/07 06:39:00;;;;;;;15.43;7.55;;;-8.70;87.30;;;;;;5076012;28;20476;-80
2022/12/07 06:41:25;;;;;;;13.55;6.47;;;-8.70;87.40;;;;;;5094224;28;20036;-81
2022/12/07 06:43:51;;;;;;;8.68;5.07;;;-8.70;87.70;;;;;;5095417;28;20118;-78
2022/12/07 06:46:17;;;;;;;15.23;5.47;;;-8.70;88.10;;;;;;5103244;28;20487;-80
2022/12/07 06:48:44;;;;;;;15.15;7.65;;;-8.70;88.30;;;;;;5097915;28;20100;-79
2022/12/07 06:51:10;;;;;;;11.63;6.75;;;-8.70;89.10;;;;;;5093232;28;20024;-80
2022/12/07 06:53:36;;;;;;;22.15;8.77;;;-8.60;88.60;;;;;;5061519;28;20024;-78
2022/12/07 06:56:02;;;;;;;12.43;7.60;;;-8.60;88.70;;;;;;5093601;28;20084;-81
2022/12/07 06:58:28;;;;;;;11.90;6.57;;;-8.60;89.40;;;;;;5093892;28;20127;-78
2022/12/07 07:00:54;;;;;;;15.15;8.30;;;-8.50;89.90;;;;;;5082210;28;20314;-77
2022/12/07 07:03:20;;;;;;;9.35;3.97;;;-8.50;89.70;;;;;;5081858;28;20123;-79
2022/12/07 07:05:46;;;;;;;7.93;4.60;;;-8.50;89.90;;;;;;5093920;28;20036;-77
2022/12/07 07:08:13;;;;;;;18.17;6.57;;;-8.60;90.00;;;;;;5075336;28;20024;-81
2022/12/07 07:10:39;;;;;;;7.75;5.70;;;-8.50;90.00;;;;;;5093629;28;20154;-78
2022/12/07 07:13:05;;;;;;;11.77;6.37;;;-8.50;90.10;;;;;;5093604;28;20488;-79
2022/12/07 07:15:32;;;;;;;14.13;8.17;;;-8.50;90.20;;;;;;5093878;28;20277;-79
2022/12/07 07:17:58;;;;;;;7.93;4.63;;;-8.50;90.20;;;;;;5093215;28;20544;-78
2022/12/07 07:20:24;;;;;;;14.13;9.18;;;-8.50;90.20;;;;;;5087262;28;20110;-79
2022/12/07 07:22:50;;;;;;;17.70;7.28;;;-8.40;90.20;;;;;;5081607;28;20025;-79
2022/12/07 07:25:16;;;;;;;16.85;7.95;;;-8.40;90.10;;;;;;5088885;28;20028;-80
2022/12/07 07:27:42;;;;;;;10.80;7.70;;;-8.30;90.10;;;;;;5074742;28;20020;-80
2022/12/07 07:30:08;;;;;;;19.85;13.02;;;-8.30;90.00;;;;;;5093237;28;20051;-79
2022/12/07 07:32:34;;;;;;;10.07;5.88;;;-8.20;90.00;;;;;;5092856;28;20030;-80
2022/12/07 07:35:00;;;;;;;23.90;9.43;;;-8.20;89.90;;;;;;5092182;28;20115;-80
2022/12/07 07:37:29;;;;;;;15.82;8.48;;;-8.20;89.90;;;;;;5074648;28;20032;-80
2022/12/07 07:39:54;;;;;;;16.02;10.05;;;-8.10;89.80;;;;;;5092475;28;20552;-81
2022/12/07 07:42:20;;;;;;;12.75;7.47;;;-8.10;90.10;;;;;;5093073;28;20032;-81
2022/12/07 07:44:46;;;;;;;15.95;6.53;;;-8.00;89.70;;;;;;5093019;28;20043;-81
2022/12/07 07:47:15;;;;;;;18.38;6.63;;;-7.90;89.40;;;;;;5092577;28;20477;-79
2022/12/07 07:49:41;;;;;;;10.75;6.25;;;-7.90;89.30;;;;;;5095488;28;20031;-79
2022/12/07 07:52:07;;;;;;;13.65;6.15;;;-7.80;89.00;;;;;;5092373;28;20028;-80
2022/12/07 07:54:32;;;;;;;18.45;8.35;;;-7.70;89.10;;;;;;5090358;28;20469;-81
2022/12/07 07:56:58;;;;;;;11.18;7.22;;;-7.60;89.20;;;;;;5094131;28;20024;-79
2022/12/07 07:59:25;;;;;;;11.50;7.13;;;-7.10;89.30;;;;;;5076185;28;20510;-79
2022/12/07 08:01:51;;;;;;;10.83;6.53;;;-6.60;88.30;;;;;;5092603;28;20024;-80
2022/12/07 08:04:17;;;;;;;13.93;7.15;;;-6.20;86.90;;;;;;5083355;28;20489;-80
2022/12/07 08:06:43;;;;;;;21.85;8.80;;;-6.00;84.00;;;;;;5089932;28;20113;-81
2022/12/07 08:09:09;;;;;;;20.67;11.60;;;-6.00;83.40;;;;;;5088000;28;20016;-81
2022/12/07 08:11:36;;;;;;;14.98;7.28;;;-5.80;84.00;;;;;;5058473;28;20466;-82
2022/12/07 08:14:02;;;;;;;14.07;6.93;;;-5.30;84.40;;;;;;5095199;28;20016;-81
2022/12/07 08:16:31;;;;;;;14.15;7.03;;;-5.00;80.90;;;;;;5092350;28;20025;-82
2022/12/07 08:18:57;;;;;;;18.42;8.10;;;-4.90;81.40;;;;;;5074494;28;20069;-79
2022/12/07 08:21:23;;;;;;;17.02;9.02;;;-4.60;80.60;;;;;;5089726;28;20024;-81
2022/12/07 08:23:49;;;;;;;13.05;6.22;;;-4.50;79.80;;;;;;5093477;28;20016;-81
2022/12/07 08:26:16;;;;;;;16.73;7.50;;;-4.70;77.60;;;;;;5089240;28;20032;-82
2022/12/07 08:28:42;;;;;;;17.13;8.38;;;-4.80;78.30;;;;;;5074224;28;20500;-82
2022/12/07 08:31:12;;;;;;;15.20;6.75;;;-4.70;78.90;;;;;;5083809;28;20043;-81
2022/12/07 08:33:38;;;;;;;17.13;10.05;;;-4.60;77.90;;;;;;5092825;28;20016;-80
2022/12/07 08:36:10;;;;;;;12.05;7.03;;;-4.80;77.50;;;;;;5096108;28;20090;-80
2022/12/07 08:38:37;;;;;;;14.13;6.90;;;-4.70;77.70;;;;;;5100402;28;20158;-80
2022/12/07 08:41:03;;;;;;;18.13;7.53;;;-4.90;76.40;;;;;;5095110;28;20028;-81
2022/12/07 08:43:30;;;;;;;16.05;7.80;;;-5.00;77.10;;;;;;5074254;28;20477;-81
2022/12/07 08:46:19;;;;;;;10.38;6.35;;;-5.10;77.10;;;;;;5092787;28;20042;-79
2022/12/07 08:48:50;;;;;;;13.80;6.97;;;-5.20;76.80;;;;;;5083774;28;20041;-81
2022/12/07 08:51:16;;;;;;;12.68;7.82;;;-5.20;77.00;;;;;;5084636;28;20032;-78
2022/12/07 08:53:43;;;;;;;18.10;7.28;;;-5.20;77.20;;;;;;5090108;28;20055;-79
2022/12/07 08:56:09;;;;;;;12.05;7.28;;;-5.10;77.50;;;;;;5092234;28;20469;-80
2022/12/07 08:58:37;;;;;;;11.50;6.75;;;-4.90;77.10;;;;;;5094121;28;20028;-79
2022/12/07 09:01:04;;;;;;;16.42;6.50;;;-4.70;77.00;;;;;;5092539;28;20481;-81
2022/12/07 09:03:30;;;;;;;;;;;-4.50;76.50;;;;;;5093107;28;20393;-79
2022/12/07 09:05:57;;;;;;;13.52;6.97;;;-4.10;77.30;;;;;;5068745;28;19917;-79
2022/12/07 09:08:29;;;;;;;12.52;6.90;;;-3.50;76.90;;;;;;5066265;28;20075;-77
2022/12/07 09:10:55;;;;;;;17.67;8.32;;;-3.30;73.00;;;;;;5059079;28;20032;-80
2022/12/07 09:13:21;;;;;;;11.25;6.75;;;-3.40;72.40;;;;;;5092188;28;20042;-78
2022/12/07 09:15:47;;;;;;;14.88;6.72;;;-3.30;72.40;;;;;;5073102;28;20032;-79
2022/12/07 09:18:13;;;;;;;16.10;8.48;;;-3.30;71.30;;;;;;5089771;28;20022;-78
2022/12/07 09:20:39;;;;;;;12.05;6.68;;;-3.10;72.20;;;;;;5089037;28;20032;-80
2022/12/07 09:23:10;;;;;;;17.58;7.97;;;-3.10;70.90;;;;;;5086091;28;20020;-80
2022/12/07 09:25:36;;;;;;;14.95;8.15;;;-3.20;70.30;;;;;;5073878;28;20114;-78
2022/12/07 09:28:02;;;;;;;9.25;5.63;;;-3.60;69.60;;;;;;5090552;28;20016;-79
2022/12/07 09:30:28;;;;;;;10.65;6.75;;;-4.20;69.80;;;;;;5085593;28;20046;-80
2022/12/07 09:32:55;;;;;;;11.05;6.47;;;-4.60;71.10;;;;;;5085297;28;20024;-76
2022/12/07 09:35:22;;;;;;;21.98;7.47;;;-4.80;71.60;;;;;;5068708;28;20020;-78
2022/12/07 09:37:48;;;;;;;8.95;5.82;;;-5.00;71.60;;;;;;5089373;28;20024;-78
2022/12/07 09:40:16;;;;;;;15.93;7.32;;;-5.30;72.10;;;;;;5089696;28;20039;-79
2022/12/07 09:42:47;;;;;;;11.63;7.18;;;-5.40;72.70;;;;;;5065020;28;20021;-79
2022/12/07 09:45:26;;;;;;;14.32;6.22;;;-5.50;73.20;;;;;;5083136;28;20032;-79
2022/12/07 09:47:52;;;;;;;11.70;7.95;;;-5.40;73.40;;;;;;5089814;28;20120;-79
2022/12/07 09:50:24;;;;;;;9.77;7.18;;;-5.50;73.50;;;;;;5086318;28;20028;-80
2022/12/07 09:52:51;;;;;;;11.27;6.13;;;-5.50;74.00;;;;;;5091215;28;20016;-80
2022/12/07 09:55:28;;;;;;;18.80;7.07;;;-5.50;74.00;;;;;;5091735;28;20028;-81
2022/12/07 09:57:54;;;;;;;11.87;7.03;;;-5.60;73.90;;;;;;5086504;28;20020;-80
2022/12/07 10:00:22;;;;;;;18.33;6.85;;;-5.20;74.80;;;;;;5091393;28;20466;-79
2022/12/07 10:03:02;;;;;;;10.48;6.50;;;-4.40;75.30;;;;;;5087407;28;20063;-81
2022/12/07 10:05:36;;;;;;;11.95;7.03;;;-3.40;73.30;;;;;;5094579;28;20089;-80
2022/12/07 10:08:02;;;;;;;14.00;6.30;;;-2.40;72.80;;;;;;5086658;28;20031;-80
2022/12/07 10:10:34;;;;;;;11.32;7.30;;;-1.70;68.70;;;;;;5072079;28;20035;-79
2022/12/07 10:13:03;;;;;;;9.43;5.97;;;-1.00;67.80;;;;;;5094674;28;20023;-79
2022/12/07 10:15:49;;;;;;;11.55;6.30;;;-0.50;65.50;;;;;;5100165;28;20016;-80
2022/12/07 10:18:20;;;;;;;13.65;8.30;;;-0.20;64.20;;;;;;5093246;28;20095;-81
2022/12/07 10:20:48;;;;;;;10.40;6.10;;;0.10;63.40;;;;;;5067946;28;20045;-81
2022/12/07 10:23:18;;;;;;;13.18;6.70;;;-0.20;62.10;;;;;;5095073;28;20019;-82
2022/12/07 10:25:45;;;;;;;14.77;7.50;;;-0.90;61.00;;;;;;5094786;28;20074;-80
2022/12/07 10:28:15;;;;;;;16.98;6.88;;;-1.60;61.50;;;;;;5091389;28;20384;-80
2022/12/07 10:30:56;;;;;;;11.90;7.35;;;-2.40;62.00;;;;;;5098287;28;20085;-81
2022/12/07 10:33:59;;;;;;;16.95;6.80;;;-3.10;62.90;;;;;;5096315;28;20046;-84
2022/12/07 10:36:36;;;;;;;10.40;6.32;;;-3.70;64.30;;;;;;5085203;28;20124;-82
2022/12/07 10:39:19;;;;;;;17.30;7.07;;;-4.20;65.20;;;;;;5092933;28;20108;-80
2022/12/07 10:41:59;;;;;;;19.98;9.05;;;-4.40;66.20;;;;;;5094468;28;20012;-81
2022/12/07 10:44:34;;;;;;;10.55;6.97;;;-4.70;66.60;;;;;;5084326;28;20024;-81
2022/12/07 10:47:28;;;;;;;8.93;5.47;;;-4.90;67.30;;;;;;5098437;28;20531;-84
2022/12/07 10:50:16;;;;;;;14.57;5.85;;;-5.20;68.20;;;;;;5090882;28;20020;-82
2022/12/07 10:52:41;;;;;;;;;;;-5.40;69.20;;;;;;5093676;28;20099;-84
2022/12/07 10:55:47;;;;;;;14.50;6.88;;;-5.60;69.40;;;;;;5095908;28;19954;-83
2022/12/07 10:58:50;;;;;;;18.02;7.03;;;-5.70;70.10;;;;;;5101940;28;20028;-81
2022/12/07 11:01:31;;;;;;;12.60;6.40;;;-5.70;71.00;;;;;;5089743;28;20028;-80
2022/12/07 11:04:08;;;;;;;6.30;4.22;;;-5.80;71.20;;;;;;5093479;28;20052;-79
2022/12/07 11:06:47;;;;;;;13.13;6.93;;;-5.80;71.60;;;;;;5093517;28;20107;-79
2022/12/07 11:09:49;;;;;;;14.27;7.32;;;-5.90;72.10;;;;;;5093668;28;20024;-81
2022/12/07 11:12:28;;;;;;;11.57;6.72;;;-6.00;72.40;;;;;;5081182;28;20020;-79
2022/12/07 11:15:32;;;;;;;17.13;7.32;;;-6.00;72.90;;;;;;5092800;28;20035;-83
2022/12/07 11:18:12;;;;;;;11.30;6.05;;;-6.10;73.10;;;;;;5092287;28;20051;-83
2022/12/07 11:21:03;;;;;;;12.88;7.00;;;-6.00;73.30;;;;;;5081648;28;20089;-83
2022/12/07 11:24:02;;;;;;;10.80;6.88;;;-6.00;73.50;;;;;;5083272;28;20025;-81
2022/12/07 11:26:42;;;;;;;11.27;6.40;;;-6.10;73.60;;;;;;5089942;28;20033;-81
2022/12/07 11:29:27;;;;;;;12.35;7.70;;;-6.20;74.40;;;;;;5069367;28;20460;-83
2022/12/07 11:32:30;;;;;;;16.17;7.07;;;-6.30;74.10;;;;;;5085117;28;20509;-82
2022/12/07 11:35:06;;;;;;;14.70;7.38;;;-6.30;74.60;;;;;;5088993;28;20385;-80
2022/12/07 11:37:35;;;;;;;13.43;5.63;;;-6.40;74.60;;;;;;5064184;28;20020;-81
2022/12/07 11:40:22;;;;;;;23.42;9.38;;;-6.40;74.90;;;;;;5088267;28;20035;-81
2022/12/07 11:43:06;;;;;;;;;;;-6.50;75.10;;;;;;5093529;28;20043;-83
2022/12/07 11:45:41;;;;;;;7.95;4.97;;;-6.50;75.50;;;;;;5092824;28;19912;-82
2022/12/07 11:48:20;;;;;;;11.88;6.72;;;-6.60;75.50;;;;;;5084820;28;20507;-84
2022/12/07 11:50:46;;;;;;;13.35;6.72;;;-6.60;76.00;;;;;;5092591;28;20023;-81
2022/12/07 11:53:23;;;;;;;7.30;4.20;;;-6.70;76.30;;;;;;5067845;28;20539;-80
2022/12/07 11:55:52;;;;;;;10.15;5.75;;;-6.70;76.40;;;;;;5091952;28;20019;-79
2022/12/07 11:58:33;;;;;;;17.73;6.70;;;-6.70;76.50;;;;;;5067704;28;20020;-78
2022/12/07 12:01:16;;;;;;;13.70;8.50;;;-6.70;76.50;;;;;;5087615;28;20032;-79
2022/12/07 12:03:47;;;;;;;13.40;6.47;;;-6.70;76.60;;;;;;5092592;28;20468;-80
2022/12/07 12:06:14;;;;;;;12.52;6.78;;;-6.60;76.80;;;;;;5093000;28;20043;-82
2022/12/07 12:08:53;;;;;;;23.90;7.10;;;-6.70;76.80;;;;;;5092722;28;20488;-80
2022/12/07 12:12:00;;;;;;;16.98;7.80;;;-6.80;77.00;;;;;;5093844;28;20016;-82
2022/12/07 12:14:47;;;;;;;12.43;7.45;;;-6.80;77.20;;;;;;5049554;28;20082;-80
2022/12/07 12:17:38;;;;;;;15.75;8.50;;;-6.80;77.40;;;;;;5069807;28;20020;-79
2022/12/07 12:20:42;;;;;;;11.07;7.45;;;-6.90;77.50;;;;;;5090498;28;20027;-80
2022/12/07 12:23:39;;;;;;;16.63;6.63;;;-6.80;77.80;;;;;;5089393;28;20079;-82
2022/12/07 12:26:08;;;;;;;9.15;5.20;;;-6.90;78.00;;;;;;5070402;28;20071;-83
2022/12/07 12:29:03;;;;;;;9.38;6.70;;;-6.90;78.10;;;;;;5091815;28;20016;-83
2022/12/07 12:31:36;;;;;;;16.48;7.95;;;-6.90;78.40;;;;;;5078912;28;20020;-81
2022/12/07 12:34:04;;;;;;;12.48;7.68;;;-7.00;78.60;;;;;;5073742;28;20032;-80
2022/12/07 12:36:46;;;;;;;15.30;8.35;;;-7.00;79.40;;;;;;5073898;28;20024;-82
2022/12/07 12:39:16;;;;;;;9.73;6.00;;;-7.00;79.00;;;;;;5092288;28;20020;-80
2022/12/07 12:44:19;;;;;;;10.90;5.68;;;-7.00;79.50;;;;;;5092454;28;20020;-81
2022/12/07 12:47:00;;;;;;;17.70;8.95;;;-7.10;79.80;;;;;;5089222;28;20546;-81
2022/12/07 12:49:25;;;;;;;13.48;7.65;;;-7.10;80.00;;;;;;5080688;28;20047;-80
2022/12/07 12:51:57;;;;;;;8.50;6.88;;;-7.10;80.20;;;;;;5061162;28;20063;-89
2022/12/07 12:54:28;;;;;;;13.65;8.00;;;-7.10;80.30;;;;;;5085164;28;20024;-80
2022/12/07 12:57:09;;;;;;;14.48;7.57;;;-7.10;80.50;;;;;;5089024;28;20438;-81
2022/12/07 12:59:39;;;;;;;14.02;7.43;;;-7.20;80.70;;;;;;5080130;28;20477;-83
2022/12/07 13:02:30;;;;;;;15.52;7.65;;;-7.20;81.00;;;;;;5071747;28;20115;-82
2022/12/07 13:05:14;;;;;;;14.32;8.75;;;-7.30;81.50;;;;;;5082027;28;20153;-82
2022/12/07 13:07:52;;;;;;;12.98;6.95;;;-7.30;81.40;;;;;;5092603;28;20020;-81
2022/12/07 13:10:24;;;;;;;17.98;8.95;;;-7.30;82.20;;;;;;5093214;28;20065;-80